Terminal Aerodrome Forecast
Issued by NWS Wilmington, OH

Current Version | Previous Version | Text Only | Print | Product List | Glossary Off
Versions: 1 2 3 4 5 6 7 8 9 10 11 12 13 14 15 16 17 18 19 20

000
FTUS41 KILN 290855 AAB
TAFILN
TAF AMD
KILN 290855Z 2909/3006 00000KT P6SM BKN120
     FM291100 20004KT P6SM VCSH SCT050 OVC120
     FM291300 21008KT P6SM FEW035 BKN150
     FM291900 21009KT P6SM VCSH SCT035 BKN250
     FM292100 21009KT P6SM SCT035 BKN250
     FM300000 22004KT P6SM VCTS BKN040CB
     FM300300 23003KT P6SM BKN035=

USA.gov is the U.S. government's official web portal to all federal, state and local government web resources and services.